Anglian Lady — VOLP — position and weather

sailwx.info

Track history (hours):
 
Tides and Currents Weather Stations Pressure Air Temp Water Temp Dewpoint Dewpoint Depression Visibility Wind Speed Wind Dir Waves Ship Positions

Anglian Lady

Last reported at 2016-Aug-24 11:33 UTC. Time now 2016-Aug-30 09:11 UTC.
Position N 45°51' W 084°11'.

Length 32 m.

Type: Tug. MMSI: 316002238.

Date/timePositionNaut miles runAvg speedWind from/ knotsBaromVisibWave heightAir tempDewpointWater temp
2016-Aug-24 11:33N 45°51' W 084°11'8 8.5
2016-Aug-24 10:33N 45°51' W 084°23'8 8.1
2016-Aug-24 09:33N 45°51' W 084°35'8 8.0
2016-Aug-24 08:33N 45°49' W 084°46'8 8.1
2016-Aug-24 07:33N 45°49' W 084°58'8 7.6
2016-Aug-24 06:33N 45°49' W 085°08'16 8.0
2016-Aug-24 04:34N 45°35' W 085°20'8 8.2
2016-Aug-24 03:33N 45°28' W 085°27'8 8.4
2016-Aug-24 02:33N 45°22' W 085°34'8 8.4
2016-Aug-24 01:33N 45°15' W 085°41'  
2016-Aug-19 10:27N 45°18' W 085°42'7 7.4
2016-Aug-19 09:33N 45°23' W 085°36'11 7.3
2016-Aug-19 08:06N 45°32' W 085°27'4 7.3
2016-Aug-19 07:33N 45°35' W 085°23'7 7.4
2016-Aug-19 06:33N 45°41' W 085°17'7 7.2
2016-Aug-19 05:33N 45°46' W 085°09'12 5.9
2016-Aug-19 03:34N 45°49' W 084°53'  
Track history (hours):
 
Tides and Currents Weather Stations Pressure Air Temp Water Temp Dewpoint Dewpoint Depression Visibility Wind Speed Wind Dir Waves Ship Positions

Anglian Lady

Last reported at 2016-Aug-24 11:33 UTC. Time now 2016-Aug-30 09:11 UTC.
Position N 45°51' W 084°11'.

Length 32 m.

Type: Tug. MMSI: 316002238.

Date/timePositionNaut miles runAvg speedWind from/ knotsBaromVisibWave heightAir tempDewpointWater temp
2016-Aug-24 11:33N 45°51' W 084°11'8 8.5
2016-Aug-24 10:33N 45°51' W 084°23'8 8.1
2016-Aug-24 09:33N 45°51' W 084°35'8 8.0
2016-Aug-24 08:33N 45°49' W 084°46'8 8.1
2016-Aug-24 07:33N 45°49' W 084°58'8 7.6
2016-Aug-24 06:33N 45°49' W 085°08'16 8.0
2016-Aug-24 04:34N 45°35' W 085°20'8 8.2
2016-Aug-24 03:33N 45°28' W 085°27'8 8.4
2016-Aug-24 02:33N 45°22' W 085°34'8 8.4
2016-Aug-24 01:33N 45°15' W 085°41'  
2016-Aug-19 10:27N 45°18' W 085°42'7 7.4
2016-Aug-19 09:33N 45°23' W 085°36'11 7.3
2016-Aug-19 08:06N 45°32' W 085°27'4 7.3
2016-Aug-19 07:33N 45°35' W 085°23'7 7.4
2016-Aug-19 06:33N 45°41' W 085°17'7 7.2
2016-Aug-19 05:33N 45°46' W 085°09'12 5.9
2016-Aug-19 03:34N 45°49' W 084°53'  

Dump ship's entire track history